sensor_id;sensor_type;location;lat;lon;timestamp;P1;durP1;ratioP1;P2;durP2;ratioP2
76065;SDS011;64763;48.928;8.474;2023-05-07T00:01:37;4.63;;;2.72;;
76065;SDS011;64763;48.928;8.474;2023-05-07T00:04:02;3.30;;;2.58;;
76065;SDS011;64763;48.928;8.474;2023-05-07T00:06:28;5.38;;;2.80;;
76065;SDS011;64763;48.928;8.474;2023-05-07T00:08:54;4.75;;;2.60;;
76065;SDS011;64763;48.928;8.474;2023-05-07T00:11:20;3.47;;;2.70;;
76065;SDS011;64763;48.928;8.474;2023-05-07T00:13:47;6.25;;;3.10;;
76065;SDS011;64763;48.928;8.474;2023-05-07T00:16:12;5.40;;;2.80;;
76065;SDS011;64763;48.928;8.474;2023-05-07T00:18:38;6.00;;;3.00;;
76065;SDS011;64763;48.928;8.474;2023-05-07T00:21:03;3.38;;;2.80;;
76065;SDS011;64763;48.928;8.474;2023-05-07T00:23:29;4.25;;;2.78;;
76065;SDS011;64763;48.928;8.474;2023-05-07T00:25:54;3.42;;;2.60;;
76065;SDS011;64763;48.928;8.474;2023-05-07T00:28:19;3.50;;;2.70;;
76065;SDS011;64763;48.928;8.474;2023-05-07T00:30:45;4.55;;;3.22;;
76065;SDS011;64763;48.928;8.474;2023-05-07T00:33:10;4.75;;;3.20;;
76065;SDS011;64763;48.928;8.474;2023-05-07T00:35:35;4.75;;;2.95;;
76065;SDS011;64763;48.928;8.474;2023-05-07T00:38:01;7.38;;;2.72;;
76065;SDS011;64763;48.928;8.474;2023-05-07T00:40:26;4.82;;;2.60;;
76065;SDS011;64763;48.928;8.474;2023-05-07T00:42:51;5.78;;;3.08;;
76065;SDS011;64763;48.928;8.474;2023-05-07T00:45:21;5.28;;;2.70;;
76065;SDS011;64763;48.928;8.474;2023-05-07T00:47:46;5.95;;;3.08;;
76065;SDS011;64763;48.928;8.474;2023-05-07T00:50:12;4.35;;;2.65;;
76065;SDS011;64763;48.928;8.474;2023-05-07T00:52:37;3.88;;;2.75;;
76065;SDS011;64763;48.928;8.474;2023-05-07T00:55:04;3.78;;;2.90;;
76065;SDS011;64763;48.928;8.474;2023-05-07T00:57:36;8.38;;;3.33;;
76065;SDS011;64763;48.928;8.474;2023-05-07T01:00:03;4.40;;;3.00;;
76065;SDS011;64763;48.928;8.474;2023-05-07T01:02:29;7.32;;;2.90;;
76065;SDS011;64763;48.928;8.474;2023-05-07T01:04:55;3.78;;;2.70;;
76065;SDS011;64763;48.928;8.474;2023-05-07T01:07:21;7.93;;;3.13;;
76065;SDS011;64763;48.928;8.474;2023-05-07T01:09:47;5.30;;;2.67;;
76065;SDS011;64763;48.928;8.474;2023-05-07T01:12:13;4.18;;;2.55;;
76065;SDS011;64763;48.928;8.474;2023-05-07T01:14:38;6.40;;;3.15;;
76065;SDS011;64763;48.928;8.474;2023-05-07T01:17:03;3.67;;;2.67;;
76065;SDS011;64763;48.928;8.474;2023-05-07T01:19:29;6.43;;;3.10;;
76065;SDS011;64763;48.928;8.474;2023-05-07T01:21:56;4.65;;;3.00;;
76065;SDS011;64763;48.928;8.474;2023-05-07T01:24:27;4.25;;;2.92;;
76065;SDS011;64763;48.928;8.474;2023-05-07T01:26:52;4.65;;;3.28;;
76065;SDS011;64763;48.928;8.474;2023-05-07T01:29:17;4.13;;;3.00;;
76065;SDS011;64763;48.928;8.474;2023-05-07T01:31:43;4.30;;;3.10;;
76065;SDS011;64763;48.928;8.474;2023-05-07T01:34:09;4.35;;;2.83;;
76065;SDS011;64763;48.928;8.474;2023-05-07T01:36:36;4.05;;;2.97;;
76065;SDS011;64763;48.928;8.474;2023-05-07T01:39:02;4.25;;;2.90;;
76065;SDS011;64763;48.928;8.474;2023-05-07T01:41:27;4.30;;;2.92;;
76065;SDS011;64763;48.928;8.474;2023-05-07T01:43:54;5.05;;;3.30;;
76065;SDS011;64763;48.928;8.474;2023-05-07T01:46:21;6.80;;;3.22;;
76065;SDS011;64763;48.928;8.474;2023-05-07T01:48:46;4.03;;;2.70;;
76065;SDS011;64763;48.928;8.474;2023-05-07T01:51:12;4.13;;;3.00;;
76065;SDS011;64763;48.928;8.474;2023-05-07T01:53:38;5.22;;;3.20;;
76065;SDS011;64763;48.928;8.474;2023-05-07T01:56:04;3.70;;;2.88;;
76065;SDS011;64763;48.928;8.474;2023-05-07T01:58:30;3.53;;;2.70;;
76065;SDS011;64763;48.928;8.474;2023-05-07T02:00:55;4.47;;;2.90;;
76065;SDS011;64763;48.928;8.474;2023-05-07T02:03:20;5.55;;;2.90;;
76065;SDS011;64763;48.928;8.474;2023-05-07T02:05:46;5.00;;;2.80;;
76065;SDS011;64763;48.928;8.474;2023-05-07T02:08:11;4.60;;;2.85;;
76065;SDS011;64763;48.928;8.474;2023-05-07T02:10:36;5.18;;;3.30;;
76065;SDS011;64763;48.928;8.474;2023-05-07T02:13:01;5.15;;;3.08;;
76065;SDS011;64763;48.928;8.474;2023-05-07T02:15:27;3.83;;;2.95;;
76065;SDS011;64763;48.928;8.474;2023-05-07T02:18:25;4.88;;;2.83;;
76065;SDS011;64763;48.928;8.474;2023-05-07T02:20:44;6.32;;;3.08;;
76065;SDS011;64763;48.928;8.474;2023-05-07T02:23:09;4.25;;;2.78;;
76065;SDS011;64763;48.928;8.474;2023-05-07T02:25:34;5.57;;;3.30;;
76065;SDS011;64763;48.928;8.474;2023-05-07T02:28:00;6.40;;;3.10;;
76065;SDS011;64763;48.928;8.474;2023-05-07T02:30:25;3.55;;;2.75;;
76065;SDS011;64763;48.928;8.474;2023-05-07T02:32:51;4.53;;;3.22;;
76065;SDS011;64763;48.928;8.474;2023-05-07T02:35:16;3.80;;;2.97;;
76065;SDS011;64763;48.928;8.474;2023-05-07T02:37:41;3.85;;;2.83;;
76065;SDS011;64763;48.928;8.474;2023-05-07T02:40:07;4.15;;;3.08;;
76065;SDS011;64763;48.928;8.474;2023-05-07T02:42:33;4.30;;;2.97;;
76065;SDS011;64763;48.928;8.474;2023-05-07T02:44:58;4.38;;;3.05;;
76065;SDS011;64763;48.928;8.474;2023-05-07T02:47:24;3.53;;;2.83;;
76065;SDS011;64763;48.928;8.474;2023-05-07T02:49:51;6.45;;;3.30;;
76065;SDS011;64763;48.928;8.474;2023-05-07T02:52:17;5.10;;;3.10;;
76065;SDS011;64763;48.928;8.474;2023-05-07T02:54:42;3.75;;;2.78;;
76065;SDS011;64763;48.928;8.474;2023-05-07T02:57:07;5.22;;;3.25;;
76065;SDS011;64763;48.928;8.474;2023-05-07T02:59:32;4.82;;;3.22;;
76065;SDS011;64763;48.928;8.474;2023-05-07T03:01:58;5.45;;;3.58;;
76065;SDS011;64763;48.928;8.474;2023-05-07T03:04:23;6.03;;;3.10;;
76065;SDS011;64763;48.928;8.474;2023-05-07T03:06:48;4.18;;;3.20;;
76065;SDS011;64763;48.928;8.474;2023-05-07T03:09:14;6.18;;;3.45;;
76065;SDS011;64763;48.928;8.474;2023-05-07T03:11:39;6.93;;;3.13;;
76065;SDS011;64763;48.928;8.474;2023-05-07T03:14:05;5.93;;;3.53;;
76065;SDS011;64763;48.928;8.474;2023-05-07T03:16:30;4.47;;;3.20;;
76065;SDS011;64763;48.928;8.474;2023-05-07T03:18:56;5.07;;;2.92;;
76065;SDS011;64763;48.928;8.474;2023-05-07T03:21:21;3.72;;;3.10;;
76065;SDS011;64763;48.928;8.474;2023-05-07T03:23:46;4.07;;;3.03;;
76065;SDS011;64763;48.928;8.474;2023-05-07T03:26:12;4.95;;;3.03;;
76065;SDS011;64763;48.928;8.474;2023-05-07T03:28:37;4.78;;;3.13;;
76065;SDS011;64763;48.928;8.474;2023-05-07T03:31:02;3.90;;;3.08;;
76065;SDS011;64763;48.928;8.474;2023-05-07T03:33:28;4.70;;;2.88;;
76065;SDS011;64763;48.928;8.474;2023-05-07T03:35:53;4.45;;;3.20;;
76065;SDS011;64763;48.928;8.474;2023-05-07T03:38:18;3.83;;;2.95;;
76065;SDS011;64763;48.928;8.474;2023-05-07T03:40:44;5.45;;;3.58;;
76065;SDS011;64763;48.928;8.474;2023-05-07T03:43:09;4.93;;;3.22;;
76065;SDS011;64763;48.928;8.474;2023-05-07T03:45:35;4.68;;;3.63;;
76065;SDS011;64763;48.928;8.474;2023-05-07T03:48:00;4.10;;;3.13;;
76065;SDS011;64763;48.928;8.474;2023-05-07T03:50:25;5.80;;;3.28;;
76065;SDS011;64763;48.928;8.474;2023-05-07T03:52:51;4.03;;;2.75;;
76065;SDS011;64763;48.928;8.474;2023-05-07T03:55:16;6.10;;;3.30;;
76065;SDS011;64763;48.928;8.474;2023-05-07T03:57:41;5.93;;;3.40;;
76065;SDS011;64763;48.928;8.474;2023-05-07T04:00:07;5.25;;;3.42;;
76065;SDS011;64763;48.928;8.474;2023-05-07T04:02:33;8.05;;;3.50;;
76065;SDS011;64763;48.928;8.474;2023-05-07T04:04:58;5.90;;;3.13;;
76065;SDS011;64763;48.928;8.474;2023-05-07T04:07:23;4.70;;;3.22;;
76065;SDS011;64763;48.928;8.474;2023-05-07T04:09:49;4.13;;;3.00;;
76065;SDS011;64763;48.928;8.474;2023-05-07T04:12:14;4.53;;;2.90;;
76065;SDS011;64763;48.928;8.474;2023-05-07T04:14:40;5.70;;;3.33;;
76065;SDS011;64763;48.928;8.474;2023-05-07T04:17:05;5.10;;;3.20;;
76065;SDS011;64763;48.928;8.474;2023-05-07T04:19:32;7.57;;;3.20;;
76065;SDS011;64763;48.928;8.474;2023-05-07T04:21:58;3.65;;;2.88;;
76065;SDS011;64763;48.928;8.474;2023-05-07T04:24:23;6.05;;;3.53;;
76065;SDS011;64763;48.928;8.474;2023-05-07T04:26:49;5.07;;;3.45;;
76065;SDS011;64763;48.928;8.474;2023-05-07T04:29:17;4.82;;;3.05;;
76065;SDS011;64763;48.928;8.474;2023-05-07T04:31:42;3.97;;;3.15;;
76065;SDS011;64763;48.928;8.474;2023-05-07T04:34:09;4.80;;;3.22;;
76065;SDS011;64763;48.928;8.474;2023-05-07T04:36:38;5.78;;;3.30;;
76065;SDS011;64763;48.928;8.474;2023-05-07T04:39:03;5.28;;;3.30;;
76065;SDS011;64763;48.928;8.474;2023-05-07T04:41:29;3.50;;;2.95;;
76065;SDS011;64763;48.928;8.474;2023-05-07T04:43:54;3.88;;;2.92;;
76065;SDS011;64763;48.928;8.474;2023-05-07T04:46:20;5.60;;;3.30;;
76065;SDS011;64763;48.928;8.474;2023-05-07T04:48:45;5.20;;;3.38;;
76065;SDS011;64763;48.928;8.474;2023-05-07T04:51:11;5.32;;;3.25;;
76065;SDS011;64763;48.928;8.474;2023-05-07T04:53:37;6.70;;;3.72;;
76065;SDS011;64763;48.928;8.474;2023-05-07T04:56:02;4.75;;;3.30;;
76065;SDS011;64763;48.928;8.474;2023-05-07T04:58:28;5.43;;;3.50;;
76065;SDS011;64763;48.928;8.474;2023-05-07T05:00:56;4.60;;;3.30;;
76065;SDS011;64763;48.928;8.474;2023-05-07T05:03:22;4.93;;;3.42;;
76065;SDS011;64763;48.928;8.474;2023-05-07T05:05:48;5.28;;;3.53;;
76065;SDS011;64763;48.928;8.474;2023-05-07T05:08:14;4.82;;;2.95;;
76065;SDS011;64763;48.928;8.474;2023-05-07T05:10:39;5.32;;;3.58;;
76065;SDS011;64763;48.928;8.474;2023-05-07T05:13:06;4.38;;;3.10;;
76065;SDS011;64763;48.928;8.474;2023-05-07T05:15:31;4.15;;;3.25;;
76065;SDS011;64763;48.928;8.474;2023-05-07T05:17:57;4.68;;;3.03;;
76065;SDS011;64763;48.928;8.474;2023-05-07T05:20:22;4.18;;;3.20;;
76065;SDS011;64763;48.928;8.474;2023-05-07T05:22:47;4.13;;;3.38;;
76065;SDS011;64763;48.928;8.474;2023-05-07T05:25:13;4.80;;;3.10;;
76065;SDS011;64763;48.928;8.474;2023-05-07T05:27:38;3.47;;;2.90;;
76065;SDS011;64763;48.928;8.474;2023-05-07T05:30:04;4.82;;;3.55;;
76065;SDS011;64763;48.928;8.474;2023-05-07T05:32:30;3.63;;;3.00;;
76065;SDS011;64763;48.928;8.474;2023-05-07T05:34:56;4.85;;;3.35;;
76065;SDS011;64763;48.928;8.474;2023-05-07T05:37:21;3.97;;;2.95;;
76065;SDS011;64763;48.928;8.474;2023-05-07T05:39:46;4.68;;;2.92;;
76065;SDS011;64763;48.928;8.474;2023-05-07T05:42:12;4.28;;;3.05;;
76065;SDS011;64763;48.928;8.474;2023-05-07T05:44:37;5.65;;;3.08;;
76065;SDS011;64763;48.928;8.474;2023-05-07T05:47:03;4.45;;;2.90;;
76065;SDS011;64763;48.928;8.474;2023-05-07T05:49:28;3.53;;;2.80;;
76065;SDS011;64763;48.928;8.474;2023-05-07T05:51:53;5.38;;;2.80;;
76065;SDS011;64763;48.928;8.474;2023-05-07T05:54:19;4.72;;;2.78;;
76065;SDS011;64763;48.928;8.474;2023-05-07T05:56:44;7.35;;;3.20;;
76065;SDS011;64763;48.928;8.474;2023-05-07T05:59:09;5.63;;;3.13;;
76065;SDS011;64763;48.928;8.474;2023-05-07T06:01:35;4.57;;;2.70;;
76065;SDS011;64763;48.928;8.474;2023-05-07T06:04:00;3.80;;;2.80;;
76065;SDS011;64763;48.928;8.474;2023-05-07T06:06:26;3.72;;;2.88;;
76065;SDS011;64763;48.928;8.474;2023-05-07T06:08:52;5.40;;;2.70;;
76065;SDS011;64763;48.928;8.474;2023-05-07T06:11:17;4.80;;;3.00;;
76065;SDS011;64763;48.928;8.474;2023-05-07T06:13:42;3.40;;;2.85;;
76065;SDS011;64763;48.928;8.474;2023-05-07T06:16:08;5.60;;;2.88;;
76065;SDS011;64763;48.928;8.474;2023-05-07T06:18:33;4.57;;;3.13;;
76065;SDS011;64763;48.928;8.474;2023-05-07T06:21:01;3.63;;;3.03;;
76065;SDS011;64763;48.928;8.474;2023-05-07T06:23:26;4.32;;;2.53;;
76065;SDS011;64763;48.928;8.474;2023-05-07T06:25:51;3.33;;;2.60;;
76065;SDS011;64763;48.928;8.474;2023-05-07T06:28:17;4.72;;;2.90;;
76065;SDS011;64763;48.928;8.474;2023-05-07T06:30:42;3.03;;;2.63;;
76065;SDS011;64763;48.928;8.474;2023-05-07T06:33:08;3.15;;;2.50;;
76065;SDS011;64763;48.928;8.474;2023-05-07T06:35:33;2.95;;;2.33;;
76065;SDS011;64763;48.928;8.474;2023-05-07T06:37:59;3.85;;;2.63;;
76065;SDS011;64763;48.928;8.474;2023-05-07T06:40:25;3.63;;;2.70;;
76065;SDS011;64763;48.928;8.474;2023-05-07T06:42:50;5.13;;;2.72;;
76065;SDS011;64763;48.928;8.474;2023-05-07T06:45:16;4.00;;;2.58;;
76065;SDS011;64763;48.928;8.474;2023-05-07T06:47:41;5.05;;;2.72;;
76065;SDS011;64763;48.928;8.474;2023-05-07T06:50:07;7.57;;;3.70;;
76065;SDS011;64763;48.928;8.474;2023-05-07T06:52:32;3.60;;;2.65;;
76065;SDS011;64763;48.928;8.474;2023-05-07T06:54:57;3.05;;;2.55;;
76065;SDS011;64763;48.928;8.474;2023-05-07T06:57:23;3.90;;;3.05;;
76065;SDS011;64763;48.928;8.474;2023-05-07T06:59:49;3.72;;;2.80;;
76065;SDS011;64763;48.928;8.474;2023-05-07T07:02:14;7.38;;;2.90;;
76065;SDS011;64763;48.928;8.474;2023-05-07T07:04:40;5.53;;;2.50;;
76065;SDS011;64763;48.928;8.474;2023-05-07T07:07:06;4.10;;;2.22;;
76065;SDS011;64763;48.928;8.474;2023-05-07T07:09:31;3.75;;;2.70;;
76065;SDS011;64763;48.928;8.474;2023-05-07T07:11:56;3.17;;;2.30;;
76065;SDS011;64763;48.928;8.474;2023-05-07T07:14:22;4.03;;;2.60;;
76065;SDS011;64763;48.928;8.474;2023-05-07T07:16:47;4.85;;;2.50;;
76065;SDS011;64763;48.928;8.474;2023-05-07T07:19:13;5.03;;;2.50;;
76065;SDS011;64763;48.928;8.474;2023-05-07T07:21:40;3.20;;;2.50;;
76065;SDS011;64763;48.928;8.474;2023-05-07T07:24:06;3.30;;;2.40;;
76065;SDS011;64763;48.928;8.474;2023-05-07T07:26:31;3.42;;;2.55;;
76065;SDS011;64763;48.928;8.474;2023-05-07T07:28:56;3.40;;;2.55;;
76065;SDS011;64763;48.928;8.474;2023-05-07T07:31:22;3.45;;;2.53;;
76065;SDS011;64763;48.928;8.474;2023-05-07T07:33:47;4.82;;;2.80;;
76065;SDS011;64763;48.928;8.474;2023-05-07T07:36:14;4.30;;;3.00;;
76065;SDS011;64763;48.928;8.474;2023-05-07T07:38:40;3.40;;;2.58;;
76065;SDS011;64763;48.928;8.474;2023-05-07T07:41:07;4.50;;;2.60;;
76065;SDS011;64763;48.928;8.474;2023-05-07T07:43:33;4.15;;;3.00;;
76065;SDS011;64763;48.928;8.474;2023-05-07T07:45:58;7.05;;;2.85;;
76065;SDS011;64763;48.928;8.474;2023-05-07T07:48:23;4.20;;;2.55;;
76065;SDS011;64763;48.928;8.474;2023-05-07T07:50:49;3.78;;;2.80;;
76065;SDS011;64763;48.928;8.474;2023-05-07T07:53:16;4.20;;;3.00;;
76065;SDS011;64763;48.928;8.474;2023-05-07T07:55:41;5.07;;;3.05;;
76065;SDS011;64763;48.928;8.474;2023-05-07T07:58:06;5.22;;;3.10;;
76065;SDS011;64763;48.928;8.474;2023-05-07T08:00:32;6.45;;;3.55;;
76065;SDS011;64763;48.928;8.474;2023-05-07T08:02:57;5.28;;;3.00;;
76065;SDS011;64763;48.928;8.474;2023-05-07T08:05:23;4.78;;;3.38;;
76065;SDS011;64763;48.928;8.474;2023-05-07T08:07:48;4.32;;;3.72;;
76065;SDS011;64763;48.928;8.474;2023-05-07T08:10:18;5.35;;;3.50;;
76065;SDS011;64763;48.928;8.474;2023-05-07T08:12:46;5.13;;;3.38;;
76065;SDS011;64763;48.928;8.474;2023-05-07T08:15:15;4.82;;;3.38;;
76065;SDS011;64763;48.928;8.474;2023-05-07T08:17:40;5.28;;;3.65;;
76065;SDS011;64763;48.928;8.474;2023-05-07T08:20:06;4.97;;;3.60;;
76065;SDS011;64763;48.928;8.474;2023-05-07T08:22:32;4.88;;;3.53;;
76065;SDS011;64763;48.928;8.474;2023-05-07T08:24:59;7.28;;;4.20;;
76065;SDS011;64763;48.928;8.474;2023-05-07T08:27:25;4.75;;;3.53;;
76065;SDS011;64763;48.928;8.474;2023-05-07T08:29:50;6.25;;;3.45;;
76065;SDS011;64763;48.928;8.474;2023-05-07T08:32:15;9.60;;;3.50;;
76065;SDS011;64763;48.928;8.474;2023-05-07T08:34:44;5.80;;;3.45;;
76065;SDS011;64763;48.928;8.474;2023-05-07T08:37:09;4.18;;;3.50;;
76065;SDS011;64763;48.928;8.474;2023-05-07T08:39:34;6.10;;;3.60;;
76065;SDS011;64763;48.928;8.474;2023-05-07T08:42:00;5.88;;;3.70;;
76065;SDS011;64763;48.928;8.474;2023-05-07T08:44:30;4.78;;;3.63;;
76065;SDS011;64763;48.928;8.474;2023-05-07T08:46:58;7.30;;;3.75;;
76065;SDS011;64763;48.928;8.474;2023-05-07T08:49:27;4.68;;;3.20;;
76065;SDS011;64763;48.928;8.474;2023-05-07T08:51:52;4.68;;;3.28;;
76065;SDS011;64763;48.928;8.474;2023-05-07T08:54:18;5.22;;;3.47;;
76065;SDS011;64763;48.928;8.474;2023-05-07T08:56:44;5.32;;;3.30;;
76065;SDS011;64763;48.928;8.474;2023-05-07T08:59:10;4.97;;;3.50;;
76065;SDS011;64763;48.928;8.474;2023-05-07T09:01:35;4.15;;;3.30;;
76065;SDS011;64763;48.928;8.474;2023-05-07T09:04:01;5.53;;;3.35;;
76065;SDS011;64763;48.928;8.474;2023-05-07T09:06:26;5.45;;;3.85;;
76065;SDS011;64763;48.928;8.474;2023-05-07T09:08:52;4.78;;;3.38;;
76065;SDS011;64763;48.928;8.474;2023-05-07T09:11:22;4.05;;;2.90;;
76065;SDS011;64763;48.928;8.474;2023-05-07T09:13:48;4.97;;;3.40;;
76065;SDS011;64763;48.928;8.474;2023-05-07T09:16:15;5.22;;;3.53;;
76065;SDS011;64763;48.928;8.474;2023-05-07T09:18:43;6.05;;;3.05;;
76065;SDS011;64763;48.928;8.474;2023-05-07T09:21:10;5.28;;;3.22;;
76065;SDS011;64763;48.928;8.474;2023-05-07T09:23:36;3.75;;;3.17;;
76065;SDS011;64763;48.928;8.474;2023-05-07T09:26:01;8.38;;;3.35;;
76065;SDS011;64763;48.928;8.474;2023-05-07T09:28:27;5.90;;;3.35;;
76065;SDS011;64763;48.928;8.474;2023-05-07T09:30:52;4.03;;;3.08;;
76065;SDS011;64763;48.928;8.474;2023-05-07T09:33:17;3.72;;;3.30;;
76065;SDS011;64763;48.928;8.474;2023-05-07T09:35:43;4.43;;;3.60;;
76065;SDS011;64763;48.928;8.474;2023-05-07T09:38:08;4.90;;;3.42;;
76065;SDS011;64763;48.928;8.474;2023-05-07T09:40:33;5.00;;;3.25;;
76065;SDS011;64763;48.928;8.474;2023-05-07T09:43:09;4.15;;;3.53;;
76065;SDS011;64763;48.928;8.474;2023-05-07T09:45:38;6.53;;;3.22;;
76065;SDS011;64763;48.928;8.474;2023-05-07T09:48:04;4.13;;;3.53;;
76065;SDS011;64763;48.928;8.474;2023-05-07T09:50:36;4.70;;;3.22;;
76065;SDS011;64763;48.928;8.474;2023-05-07T09:53:03;4.57;;;3.50;;
76065;SDS011;64763;48.928;8.474;2023-05-07T09:55:29;4.20;;;3.42;;
76065;SDS011;64763;48.928;8.474;2023-05-07T09:57:55;4.57;;;3.28;;
76065;SDS011;64763;48.928;8.474;2023-05-07T10:00:21;4.45;;;3.30;;
76065;SDS011;64763;48.928;8.474;2023-05-07T10:02:48;5.38;;;3.80;;
76065;SDS011;64763;48.928;8.474;2023-05-07T10:05:14;6.32;;;3.65;;
76065;SDS011;64763;48.928;8.474;2023-05-07T10:07:40;4.90;;;3.45;;
76065;SDS011;64763;48.928;8.474;2023-05-07T10:10:06;5.50;;;3.60;;
76065;SDS011;64763;48.928;8.474;2023-05-07T10:12:32;4.78;;;3.08;;
76065;SDS011;64763;48.928;8.474;2023-05-07T10:15:04;5.90;;;3.20;;
76065;SDS011;64763;48.928;8.474;2023-05-07T10:17:31;5.28;;;3.50;;
76065;SDS011;64763;48.928;8.474;2023-05-07T10:19:57;5.30;;;3.65;;
76065;SDS011;64763;48.928;8.474;2023-05-07T10:22:22;6.10;;;3.85;;
76065;SDS011;64763;48.928;8.474;2023-05-07T10:24:49;4.47;;;3.67;;
76065;SDS011;64763;48.928;8.474;2023-05-07T10:27:15;8.15;;;3.80;;
76065;SDS011;64763;48.928;8.474;2023-05-07T10:29:56;5.38;;;3.47;;
76065;SDS011;64763;48.928;8.474;2023-05-07T10:32:42;4.50;;;3.47;;
76065;SDS011;64763;48.928;8.474;2023-05-07T10:35:20;6.40;;;3.90;;
76065;SDS011;64763;48.928;8.474;2023-05-07T10:37:48;5.32;;;3.60;;
76065;SDS011;64763;48.928;8.474;2023-05-07T10:40:13;3.80;;;3.35;;
76065;SDS011;64763;48.928;8.474;2023-05-07T10:42:44;4.55;;;3.55;;
76065;SDS011;64763;48.928;8.474;2023-05-07T10:45:18;4.88;;;3.22;;
76065;SDS011;64763;48.928;8.474;2023-05-07T10:50:43;4.40;;;3.38;;
76065;SDS011;64763;48.928;8.474;2023-05-07T10:55:44;4.43;;;3.15;;
76065;SDS011;64763;48.928;8.474;2023-05-07T10:58:23;5.43;;;3.55;;
76065;SDS011;64763;48.928;8.474;2023-05-07T11:00:56;4.80;;;3.42;;
76065;SDS011;64763;48.928;8.474;2023-05-07T11:03:23;4.82;;;3.50;;
76065;SDS011;64763;48.928;8.474;2023-05-07T11:06:08;4.65;;;3.55;;
76065;SDS011;64763;48.928;8.474;2023-05-07T11:11:18;8.15;;;3.80;;
76065;SDS011;64763;48.928;8.474;2023-05-07T11:13:47;5.72;;;3.33;;
76065;SDS011;64763;48.928;8.474;2023-05-07T11:18:51;6.60;;;3.78;;
76065;SDS011;64763;48.928;8.474;2023-05-07T11:21:34;6.80;;;3.85;;
76065;SDS011;64763;48.928;8.474;2023-05-07T11:24:05;5.30;;;3.55;;
76065;SDS011;64763;48.928;8.474;2023-05-07T11:26:41;6.57;;;3.65;;
76065;SDS011;64763;48.928;8.474;2023-05-07T11:29:19;4.10;;;3.50;;
76065;SDS011;64763;48.928;8.474;2023-05-07T11:31:52;5.72;;;3.85;;
76065;SDS011;64763;48.928;8.474;2023-05-07T11:34:22;6.15;;;3.47;;
76065;SDS011;64763;48.928;8.474;2023-05-07T11:36:48;6.07;;;3.40;;
76065;SDS011;64763;48.928;8.474;2023-05-07T11:44:53;6.55;;;3.75;;
76065;SDS011;64763;48.928;8.474;2023-05-07T11:47:18;4.18;;;3.55;;
76065;SDS011;64763;48.928;8.474;2023-05-07T11:49:50;4.82;;;3.88;;
76065;SDS011;64763;48.928;8.474;2023-05-07T11:52:18;5.55;;;3.60;;
76065;SDS011;64763;48.928;8.474;2023-05-07T11:54:54;5.13;;;3.38;;
76065;SDS011;64763;48.928;8.474;2023-05-07T11:57:21;5.50;;;3.97;;
76065;SDS011;64763;48.928;8.474;2023-05-07T11:59:47;5.07;;;3.30;;
76065;SDS011;64763;48.928;8.474;2023-05-07T12:02:16;6.25;;;3.65;;
76065;SDS011;64763;48.928;8.474;2023-05-07T12:04:42;5.13;;;3.47;;
76065;SDS011;64763;48.928;8.474;2023-05-07T12:07:14;4.65;;;3.72;;
76065;SDS011;64763;48.928;8.474;2023-05-07T12:09:41;4.93;;;3.50;;
76065;SDS011;64763;48.928;8.474;2023-05-07T12:12:07;6.10;;;3.85;;
76065;SDS011;64763;48.928;8.474;2023-05-07T12:14:32;4.70;;;3.80;;
76065;SDS011;64763;48.928;8.474;2023-05-07T12:16:58;7.13;;;3.65;;
76065;SDS011;64763;48.928;8.474;2023-05-07T12:19:27;5.25;;;3.45;;
76065;SDS011;64763;48.928;8.474;2023-05-07T12:21:53;3.53;;;2.92;;
76065;SDS011;64763;48.928;8.474;2023-05-07T12:24:18;4.95;;;4.07;;
76065;SDS011;64763;48.928;8.474;2023-05-07T12:26:43;4.03;;;3.40;;
76065;SDS011;64763;48.928;8.474;2023-05-07T12:29:09;5.68;;;3.70;;
76065;SDS011;64763;48.928;8.474;2023-05-07T12:31:34;4.72;;;3.30;;
76065;SDS011;64763;48.928;8.474;2023-05-07T12:33:59;3.80;;;3.08;;
76065;SDS011;64763;48.928;8.474;2023-05-07T12:36:25;4.63;;;3.63;;
76065;SDS011;64763;48.928;8.474;2023-05-07T12:38:50;4.72;;;3.40;;
76065;SDS011;64763;48.928;8.474;2023-05-07T12:41:16;5.32;;;3.05;;
76065;SDS011;64763;48.928;8.474;2023-05-07T12:43:44;4.90;;;3.50;;
76065;SDS011;64763;48.928;8.474;2023-05-07T12:46:11;3.97;;;3.40;;
76065;SDS011;64763;48.928;8.474;2023-05-07T12:48:38;4.25;;;2.95;;
76065;SDS011;64763;48.928;8.474;2023-05-07T12:51:08;3.97;;;2.72;;
76065;SDS011;64763;48.928;8.474;2023-05-07T12:53:39;5.32;;;3.00;;
76065;SDS011;64763;48.928;8.474;2023-05-07T12:56:05;4.20;;;3.00;;
76065;SDS011;64763;48.928;8.474;2023-05-07T12:58:32;5.05;;;3.08;;
76065;SDS011;64763;48.928;8.474;2023-05-07T13:00:59;5.43;;;3.30;;
76065;SDS011;64763;48.928;8.474;2023-05-07T13:03:27;3.88;;;3.10;;
76065;SDS011;64763;48.928;8.474;2023-05-07T13:05:54;4.85;;;3.20;;
76065;SDS011;64763;48.928;8.474;2023-05-07T13:10:59;4.53;;;3.25;;
76065;SDS011;64763;48.928;8.474;2023-05-07T13:13:32;7.13;;;3.70;;
76065;SDS011;64763;48.928;8.474;2023-05-07T13:15:58;5.30;;;3.67;;
76065;SDS011;64763;48.928;8.474;2023-05-07T13:18:24;4.63;;;3.22;;
76065;SDS011;64763;48.928;8.474;2023-05-07T13:20:50;4.68;;;4.13;;
76065;SDS011;64763;48.928;8.474;2023-05-07T13:23:16;3.58;;;2.30;;
76065;SDS011;64763;48.928;8.474;2023-05-07T13:25:42;2.20;;;1.73;;
76065;SDS011;64763;48.928;8.474;2023-05-07T13:28:07;2.97;;;1.73;;
76065;SDS011;64763;48.928;8.474;2023-05-07T13:30:33;2.35;;;1.48;;
76065;SDS011;64763;48.928;8.474;2023-05-07T13:32:58;2.75;;;1.50;;
76065;SDS011;64763;48.928;8.474;2023-05-07T13:35:24;3.13;;;1.33;;
76065;SDS011;64763;48.928;8.474;2023-05-07T13:37:49;2.90;;;1.38;;
76065;SDS011;64763;48.928;8.474;2023-05-07T13:40:15;4.35;;;1.50;;
76065;SDS011;64763;48.928;8.474;2023-05-07T13:42:40;3.30;;;1.30;;
76065;SDS011;64763;48.928;8.474;2023-05-07T13:45:06;1.85;;;1.25;;
76065;SDS011;64763;48.928;8.474;2023-05-07T13:47:32;2.58;;;1.23;;
76065;SDS011;64763;48.928;8.474;2023-05-07T13:49:57;2.15;;;1.42;;
76065;SDS011;64763;48.928;8.474;2023-05-07T13:52:23;2.05;;;1.27;;
76065;SDS011;64763;48.928;8.474;2023-05-07T13:54:48;2.42;;;1.55;;
76065;SDS011;64763;48.928;8.474;2023-05-07T13:57:13;1.63;;;1.20;;
76065;SDS011;64763;48.928;8.474;2023-05-07T13:59:40;3.00;;;1.63;;
76065;SDS011;64763;48.928;8.474;2023-05-07T14:02:05;2.30;;;1.38;;
76065;SDS011;64763;48.928;8.474;2023-05-07T14:04:31;1.90;;;1.35;;
76065;SDS011;64763;48.928;8.474;2023-05-07T14:06:56;4.25;;;1.95;;
76065;SDS011;64763;48.928;8.474;2023-05-07T14:09:22;2.10;;;1.60;;
76065;SDS011;64763;48.928;8.474;2023-05-07T14:11:47;2.72;;;1.90;;
76065;SDS011;64763;48.928;8.474;2023-05-07T14:14:16;2.88;;;1.63;;
76065;SDS011;64763;48.928;8.474;2023-05-07T14:16:41;3.42;;;1.60;;
76065;SDS011;64763;48.928;8.474;2023-05-07T14:19:07;2.40;;;1.55;;
76065;SDS011;64763;48.928;8.474;2023-05-07T14:21:32;2.30;;;1.58;;
76065;SDS011;64763;48.928;8.474;2023-05-07T14:23:58;3.42;;;1.48;;
76065;SDS011;64763;48.928;8.474;2023-05-07T14:26:24;2.00;;;1.50;;
76065;SDS011;64763;48.928;8.474;2023-05-07T14:28:51;2.65;;;1.70;;
76065;SDS011;64763;48.928;8.474;2023-05-07T14:31:17;2.30;;;1.73;;
76065;SDS011;64763;48.928;8.474;2023-05-07T14:33:42;3.67;;;1.80;;
76065;SDS011;64763;48.928;8.474;2023-05-07T14:36:08;3.15;;;1.70;;
76065;SDS011;64763;48.928;8.474;2023-05-07T14:38:33;2.55;;;1.45;;
76065;SDS011;64763;48.928;8.474;2023-05-07T14:40:58;3.00;;;1.80;;
76065;SDS011;64763;48.928;8.474;2023-05-07T14:43:27;2.65;;;1.52;;
76065;SDS011;64763;48.928;8.474;2023-05-07T14:45:52;3.08;;;1.67;;
76065;SDS011;64763;48.928;8.474;2023-05-07T14:48:17;2.10;;;1.70;;
76065;SDS011;64763;48.928;8.474;2023-05-07T14:50:42;2.60;;;1.65;;
76065;SDS011;64763;48.928;8.474;2023-05-07T14:53:08;2.78;;;1.73;;
76065;SDS011;64763;48.928;8.474;2023-05-07T14:55:34;3.53;;;1.80;;
76065;SDS011;64763;48.928;8.474;2023-05-07T14:57:59;3.05;;;1.70;;
76065;SDS011;64763;48.928;8.474;2023-05-07T15:00:25;2.45;;;1.52;;
76065;SDS011;64763;48.928;8.474;2023-05-07T15:02:50;3.90;;;2.00;;